sensor_id;sensor_type;location;lat;lon;timestamp;temperature;humidity
5842;DHT22;2947;52.276;9.946;2022-10-31T00:03:44;16.30;1.00
5842;DHT22;2947;52.276;9.946;2022-10-31T00:06:11;16.20;1.00
5842;DHT22;2947;52.276;9.946;2022-10-31T00:08:36;14.40;90.50
5842;DHT22;2947;52.276;9.946;2022-10-31T00:11:02;16.20;41.30
5842;DHT22;2947;52.276;9.946;2022-10-31T00:13:28;16.20;99.90
5842;DHT22;2947;52.276;9.946;2022-10-31T00:15:53;16.20;99.90
5842;DHT22;2947;52.276;9.946;2022-10-31T00:18:19;16.20;99.90
5842;DHT22;2947;52.276;9.946;2022-10-31T00:20:46;17.10;99.90
5842;DHT22;2947;52.276;9.946;2022-10-31T00:23:12;16.20;1.00
5842;DHT22;2947;52.276;9.946;2022-10-31T00:25:39;16.20;1.00
5842;DHT22;2947;52.276;9.946;2022-10-31T00:28:06;16.10;1.00
5842;DHT22;2947;52.276;9.946;2022-10-31T00:30:33;16.10;1.00
5842;DHT22;2947;52.276;9.946;2022-10-31T00:32:59;16.10;99.90
5842;DHT22;2947;52.276;9.946;2022-10-31T00:35:25;16.10;1.00
5842;DHT22;2947;52.276;9.946;2022-10-31T00:37:52;16.10;99.90
5842;DHT22;2947;52.276;9.946;2022-10-31T00:40:17;16.70;99.90
5842;DHT22;2947;52.276;9.946;2022-10-31T00:42:43;16.60;99.90
5842;DHT22;2947;52.276;9.946;2022-10-31T00:45:10;16.00;1.00
5842;DHT22;2947;52.276;9.946;2022-10-31T00:47:36;16.00;1.00
5842;DHT22;2947;52.276;9.946;2022-10-31T00:50:03;16.00;99.90
5842;DHT22;2947;52.276;9.946;2022-10-31T00:52:29;16.00;12.30
5842;DHT22;2947;52.276;9.946;2022-10-31T00:54:55;16.00;99.90
5842;DHT22;2947;52.276;9.946;2022-10-31T00:57:21;15.90;1.00
5842;DHT22;2947;52.276;9.946;2022-10-31T00:59:46;15.90;99.90
5842;DHT22;2947;52.276;9.946;2022-10-31T01:02:12;15.90;99.90
5842;DHT22;2947;52.276;9.946;2022-10-31T01:04:38;15.90;99.90
5842;DHT22;2947;52.276;9.946;2022-10-31T01:07:03;15.90;99.90
5842;DHT22;2947;52.276;9.946;2022-10-31T01:09:29;15.80;1.00
5842;DHT22;2947;52.276;9.946;2022-10-31T01:11:55;15.80;1.00
5842;DHT22;2947;52.276;9.946;2022-10-31T01:14:20;15.80;97.90
5842;DHT22;2947;52.276;9.946;2022-10-31T01:16:46;15.80;97.30
5842;DHT22;2947;52.276;9.946;2022-10-31T01:19:12;15.80;99.90
5842;DHT22;2947;52.276;9.946;2022-10-31T01:21:37;15.80;99.90
5842;DHT22;2947;52.276;9.946;2022-10-31T01:24:03;15.80;99.90
5842;DHT22;2947;52.276;9.946;2022-10-31T01:26:31;15.60;99.90
5842;DHT22;2947;52.276;9.946;2022-10-31T01:29:06;15.70;99.90
5842;DHT22;2947;52.276;9.946;2022-10-31T01:31:36;15.70;1.00
5842;DHT22;2947;52.276;9.946;2022-10-31T01:34:03;15.70;1.00
5842;DHT22;2947;52.276;9.946;2022-10-31T01:36:35;15.60;1.00
5842;DHT22;2947;52.276;9.946;2022-10-31T01:39:08;15.60;1.00
5842;DHT22;2947;52.276;9.946;2022-10-31T01:41:43;15.20;1.00
5842;DHT22;2947;52.276;9.946;2022-10-31T01:47:06;15.60;1.00
5842;DHT22;2947;52.276;9.946;2022-10-31T01:49:47;15.40;1.00
5842;DHT22;2947;52.276;9.946;2022-10-31T01:52:26;15.40;1.00
5842;DHT22;2947;52.276;9.946;2022-10-31T01:55:05;16.30;1.00
5842;DHT22;2947;52.276;9.946;2022-10-31T01:57:35;15.40;1.00
5842;DHT22;2947;52.276;9.946;2022-10-31T02:00:07;16.30;1.00
5842;DHT22;2947;52.276;9.946;2022-10-31T02:02:34;15.30;1.00
5842;DHT22;2947;52.276;9.946;2022-10-31T02:05:02;15.40;1.00
5842;DHT22;2947;52.276;9.946;2022-10-31T02:07:36;16.00;1.00
5842;DHT22;2947;52.276;9.946;2022-10-31T02:10:05;15.20;1.00
5842;DHT22;2947;52.276;9.946;2022-10-31T02:12:31;15.20;1.00
5842;DHT22;2947;52.276;9.946;2022-10-31T02:14:59;15.30;1.00
5842;DHT22;2947;52.276;9.946;2022-10-31T02:17:26;16.10;1.00
5842;DHT22;2947;52.276;9.946;2022-10-31T02:20:13;15.20;1.00
5842;DHT22;2947;52.276;9.946;2022-10-31T02:22:56;15.20;1.00
5842;DHT22;2947;52.276;9.946;2022-10-31T02:36:50;15.10;11.00
5842;DHT22;2947;52.276;9.946;2022-10-31T02:39:44;15.00;13.50
5842;DHT22;2947;52.276;9.946;2022-10-31T02:42:26;15.00;20.00
5842;DHT22;2947;52.276;9.946;2022-10-31T02:47:49;15.00;26.20
5842;DHT22;2947;52.276;9.946;2022-10-31T02:50:26;14.10;28.20
5842;DHT22;2947;52.276;9.946;2022-10-31T02:52:55;15.00;38.20
5842;DHT22;2947;52.276;9.946;2022-10-31T02:57:56;15.00;44.90
5842;DHT22;2947;52.276;9.946;2022-10-31T03:07:11;14.90;52.80
5842;DHT22;2947;52.276;9.946;2022-10-31T03:09:48;14.90;59.60
5842;DHT22;2947;52.276;9.946;2022-10-31T03:12:28;14.90;65.80
5842;DHT22;2947;52.276;9.946;2022-10-31T03:15:21;14.90;77.30
5842;DHT22;2947;52.276;9.946;2022-10-31T03:20:43;14.90;75.90
5842;DHT22;2947;52.276;9.946;2022-10-31T03:23:15;15.00;86.70
5842;DHT22;2947;52.276;9.946;2022-10-31T03:25:42;14.90;86.80
5842;DHT22;2947;52.276;9.946;2022-10-31T03:28:11;14.90;79.00
5842;DHT22;2947;52.276;9.946;2022-10-31T03:30:40;15.60;69.90
5842;DHT22;2947;52.276;9.946;2022-10-31T03:33:10;14.90;50.80
5842;DHT22;2947;52.276;9.946;2022-10-31T03:35:41;15.50;52.40
5842;DHT22;2947;52.276;9.946;2022-10-31T03:38:09;14.80;46.00
5842;DHT22;2947;52.276;9.946;2022-10-31T03:40:37;14.80;53.30
5842;DHT22;2947;52.276;9.946;2022-10-31T03:43:06;14.80;56.90
5842;DHT22;2947;52.276;9.946;2022-10-31T03:45:41;14.80;61.50
5842;DHT22;2947;52.276;9.946;2022-10-31T03:48:09;14.70;56.40
5842;DHT22;2947;52.276;9.946;2022-10-31T03:51:07;14.80;56.00
5842;DHT22;2947;52.276;9.946;2022-10-31T03:53:56;14.70;56.20
5842;DHT22;2947;52.276;9.946;2022-10-31T03:56:37;14.70;70.00
5842;DHT22;2947;52.276;9.946;2022-10-31T03:59:11;14.70;72.20
5842;DHT22;2947;52.276;9.946;2022-10-31T04:01:46;14.70;48.40
5842;DHT22;2947;52.276;9.946;2022-10-31T04:04:14;14.60;27.80
5842;DHT22;2947;52.276;9.946;2022-10-31T04:06:42;14.60;34.20
5842;DHT22;2947;52.276;9.946;2022-10-31T04:09:09;14.50;29.50
5842;DHT22;2947;52.276;9.946;2022-10-31T04:11:40;14.50;43.00
5842;DHT22;2947;52.276;9.946;2022-10-31T04:14:11;14.50;67.60
5842;DHT22;2947;52.276;9.946;2022-10-31T04:16:40;14.40;75.00
5842;DHT22;2947;52.276;9.946;2022-10-31T04:19:09;14.50;93.10
5842;DHT22;2947;52.276;9.946;2022-10-31T04:21:35;14.40;99.90
5842;DHT22;2947;52.276;9.946;2022-10-31T04:24:01;14.30;73.00
5842;DHT22;2947;52.276;9.946;2022-10-31T04:26:26;14.20;27.90
5842;DHT22;2947;52.276;9.946;2022-10-31T04:28:52;14.20;26.20
5842;DHT22;2947;52.276;9.946;2022-10-31T04:31:18;14.10;3.90
5842;DHT22;2947;52.276;9.946;2022-10-31T04:33:44;14.10;4.50
5842;DHT22;2947;52.276;9.946;2022-10-31T04:36:10;14.00;29.80
5842;DHT22;2947;52.276;9.946;2022-10-31T04:38:35;14.60;56.30
5842;DHT22;2947;52.276;9.946;2022-10-31T04:41:01;13.90;58.00
5842;DHT22;2947;52.276;9.946;2022-10-31T04:43:27;12.90;58.50
5842;DHT22;2947;52.276;9.946;2022-10-31T04:45:52;13.90;53.60
5842;DHT22;2947;52.276;9.946;2022-10-31T04:48:18;13.90;36.70
5842;DHT22;2947;52.276;9.946;2022-10-31T04:50:44;13.90;33.10
5842;DHT22;2947;52.276;9.946;2022-10-31T04:53:09;13.90;37.20
5842;DHT22;2947;52.276;9.946;2022-10-31T04:55:36;13.90;53.30
5842;DHT22;2947;52.276;9.946;2022-10-31T04:58:01;13.90;75.00
5842;DHT22;2947;52.276;9.946;2022-10-31T05:00:28;13.90;90.20
5842;DHT22;2947;52.276;9.946;2022-10-31T05:02:55;13.90;87.10
5842;DHT22;2947;52.276;9.946;2022-10-31T05:05:24;13.90;94.50
5842;DHT22;2947;52.276;9.946;2022-10-31T05:07:55;13.90;99.90
5842;DHT22;2947;52.276;9.946;2022-10-31T05:10:24;14.20;99.90
5842;DHT22;2947;52.276;9.946;2022-10-31T05:12:56;13.80;99.90
5842;DHT22;2947;52.276;9.946;2022-10-31T05:15:24;13.80;99.90
5842;DHT22;2947;52.276;9.946;2022-10-31T05:17:51;13.80;99.90
5842;DHT22;2947;52.276;9.946;2022-10-31T05:20:19;13.70;99.90
5842;DHT22;2947;52.276;9.946;2022-10-31T05:22:52;13.70;99.90
5842;DHT22;2947;52.276;9.946;2022-10-31T05:25:20;13.70;94.70
5842;DHT22;2947;52.276;9.946;2022-10-31T05:27:49;13.70;79.30
5842;DHT22;2947;52.276;9.946;2022-10-31T05:30:19;13.70;70.10
5842;DHT22;2947;52.276;9.946;2022-10-31T05:32:48;13.60;67.70
5842;DHT22;2947;52.276;9.946;2022-10-31T05:35:17;13.60;92.50
5842;DHT22;2947;52.276;9.946;2022-10-31T05:37:47;13.50;99.90
5842;DHT22;2947;52.276;9.946;2022-10-31T05:40:15;13.40;99.90
5842;DHT22;2947;52.276;9.946;2022-10-31T05:42:42;13.40;99.90
5842;DHT22;2947;52.276;9.946;2022-10-31T05:45:10;13.30;99.90
5842;DHT22;2947;52.276;9.946;2022-10-31T05:47:37;13.30;99.90
5842;DHT22;2947;52.276;9.946;2022-10-31T05:50:03;13.40;99.90
5842;DHT22;2947;52.276;9.946;2022-10-31T05:52:30;13.30;99.90
5842;DHT22;2947;52.276;9.946;2022-10-31T05:54:55;13.30;99.90
5842;DHT22;2947;52.276;9.946;2022-10-31T05:57:21;13.30;99.90
5842;DHT22;2947;52.276;9.946;2022-10-31T05:59:47;13.30;99.90
5842;DHT22;2947;52.276;9.946;2022-10-31T06:02:12;13.30;99.90
5842;DHT22;2947;52.276;9.946;2022-10-31T06:04:38;13.30;99.90
5842;DHT22;2947;52.276;9.946;2022-10-31T06:07:04;13.40;99.90
5842;DHT22;2947;52.276;9.946;2022-10-31T06:09:29;13.30;99.90
5842;DHT22;2947;52.276;9.946;2022-10-31T06:11:55;13.30;99.90
5842;DHT22;2947;52.276;9.946;2022-10-31T06:14:21;13.30;99.90
5842;DHT22;2947;52.276;9.946;2022-10-31T06:16:46;13.30;99.90
5842;DHT22;2947;52.276;9.946;2022-10-31T06:19:12;13.20;99.90
5842;DHT22;2947;52.276;9.946;2022-10-31T06:21:38;14.20;99.90
5842;DHT22;2947;52.276;9.946;2022-10-31T06:24:04;13.30;99.90
5842;DHT22;2947;52.276;9.946;2022-10-31T06:26:29;13.20;99.90
5842;DHT22;2947;52.276;9.946;2022-10-31T06:28:55;13.20;99.90
5842;DHT22;2947;52.276;9.946;2022-10-31T06:31:21;13.20;99.90
5842;DHT22;2947;52.276;9.946;2022-10-31T06:33:46;13.20;99.90
5842;DHT22;2947;52.276;9.946;2022-10-31T06:36:12;14.10;99.90
5842;DHT22;2947;52.276;9.946;2022-10-31T06:38:38;13.10;99.90
5842;DHT22;2947;52.276;9.946;2022-10-31T06:41:05;14.60;99.90
5842;DHT22;2947;52.276;9.946;2022-10-31T06:43:31;13.20;99.90
5842;DHT22;2947;52.276;9.946;2022-10-31T06:45:57;13.10;99.90
5842;DHT22;2947;52.276;9.946;2022-10-31T06:48:27;13.10;99.90
5842;DHT22;2947;52.276;9.946;2022-10-31T06:50:53;13.20;99.90
5842;DHT22;2947;52.276;9.946;2022-10-31T06:53:18;13.20;99.90
5842;DHT22;2947;52.276;9.946;2022-10-31T06:55:44;13.20;99.90
5842;DHT22;2947;52.276;9.946;2022-10-31T06:58:10;13.20;99.90
5842;DHT22;2947;52.276;9.946;2022-10-31T07:00:36;13.20;99.90
5842;DHT22;2947;52.276;9.946;2022-10-31T07:03:08;13.20;99.90
5842;DHT22;2947;52.276;9.946;2022-10-31T07:05:35;13.20;99.90
5842;DHT22;2947;52.276;9.946;2022-10-31T07:08:04;13.30;99.90
5842;DHT22;2947;52.276;9.946;2022-10-31T07:10:33;13.30;99.90
5842;DHT22;2947;52.276;9.946;2022-10-31T07:13:01;13.30;99.90
5842;DHT22;2947;52.276;9.946;2022-10-31T07:15:32;13.40;99.90
5842;DHT22;2947;52.276;9.946;2022-10-31T07:18:00;13.30;99.90
5842;DHT22;2947;52.276;9.946;2022-10-31T07:20:27;13.40;99.90
5842;DHT22;2947;52.276;9.946;2022-10-31T07:22:53;13.40;99.90
5842;DHT22;2947;52.276;9.946;2022-10-31T07:25:19;13.50;99.90
5842;DHT22;2947;52.276;9.946;2022-10-31T07:27:45;13.50;99.90
5842;DHT22;2947;52.276;9.946;2022-10-31T07:30:12;13.50;99.90
5842;DHT22;2947;52.276;9.946;2022-10-31T07:32:43;13.60;99.90
5842;DHT22;2947;52.276;9.946;2022-10-31T07:35:12;14.10;99.90
5842;DHT22;2947;52.276;9.946;2022-10-31T07:37:39;13.50;99.90
5842;DHT22;2947;52.276;9.946;2022-10-31T07:40:07;14.20;99.90
5842;DHT22;2947;52.276;9.946;2022-10-31T07:42:41;13.60;99.90
5842;DHT22;2947;52.276;9.946;2022-10-31T07:45:10;13.60;99.90
5842;DHT22;2947;52.276;9.946;2022-10-31T07:47:40;13.60;99.90
5842;DHT22;2947;52.276;9.946;2022-10-31T07:50:13;14.20;99.90
5842;DHT22;2947;52.276;9.946;2022-10-31T07:52:41;13.70;99.90
5842;DHT22;2947;52.276;9.946;2022-10-31T07:55:07;13.30;99.90
5842;DHT22;2947;52.276;9.946;2022-10-31T07:57:33;13.80;99.90
5842;DHT22;2947;52.276;9.946;2022-10-31T07:59:59;13.80;99.90
5842;DHT22;2947;52.276;9.946;2022-10-31T08:02:25;13.80;99.90
5842;DHT22;2947;52.276;9.946;2022-10-31T08:04:51;13.90;99.90
5842;DHT22;2947;52.276;9.946;2022-10-31T08:07:18;14.90;99.90
5842;DHT22;2947;52.276;9.946;2022-10-31T08:09:43;13.90;99.90
5842;DHT22;2947;52.276;9.946;2022-10-31T08:12:09;13.80;99.90
5842;DHT22;2947;52.276;9.946;2022-10-31T08:14:35;13.90;99.90
5842;DHT22;2947;52.276;9.946;2022-10-31T08:17:00;13.90;99.90
5842;DHT22;2947;52.276;9.946;2022-10-31T08:19:26;13.90;99.90
5842;DHT22;2947;52.276;9.946;2022-10-31T08:21:53;15.20;99.90
5842;DHT22;2947;52.276;9.946;2022-10-31T08:24:23;13.90;99.90
5842;DHT22;2947;52.276;9.946;2022-10-31T08:26:50;13.90;99.90
5842;DHT22;2947;52.276;9.946;2022-10-31T08:29:15;13.90;99.90
5842;DHT22;2947;52.276;9.946;2022-10-31T08:31:42;14.00;99.90
5842;DHT22;2947;52.276;9.946;2022-10-31T08:34:08;14.00;99.90
5842;DHT22;2947;52.276;9.946;2022-10-31T08:36:33;14.00;99.90
5842;DHT22;2947;52.276;9.946;2022-10-31T08:38:59;14.00;99.90
5842;DHT22;2947;52.276;9.946;2022-10-31T08:41:25;13.90;99.90
5842;DHT22;2947;52.276;9.946;2022-10-31T08:43:51;14.00;99.90
5842;DHT22;2947;52.276;9.946;2022-10-31T08:46:17;14.00;99.90
5842;DHT22;2947;52.276;9.946;2022-10-31T08:48:43;14.10;99.90
5842;DHT22;2947;52.276;9.946;2022-10-31T08:51:09;14.10;99.90
5842;DHT22;2947;52.276;9.946;2022-10-31T08:53:36;13.40;99.90
5842;DHT22;2947;52.276;9.946;2022-10-31T08:56:02;14.20;99.90
5842;DHT22;2947;52.276;9.946;2022-10-31T08:58:27;14.30;99.90
5842;DHT22;2947;52.276;9.946;2022-10-31T09:00:54;15.10;99.90
5842;DHT22;2947;52.276;9.946;2022-10-31T09:03:23;14.40;99.90
5842;DHT22;2947;52.276;9.946;2022-10-31T09:05:53;14.50;99.90
5842;DHT22;2947;52.276;9.946;2022-10-31T09:08:20;14.40;99.90
5842;DHT22;2947;52.276;9.946;2022-10-31T09:10:46;14.50;99.90
5842;DHT22;2947;52.276;9.946;2022-10-31T09:13:14;14.50;99.90
5842;DHT22;2947;52.276;9.946;2022-10-31T09:15:43;14.50;99.90
5842;DHT22;2947;52.276;9.946;2022-10-31T09:18:11;14.50;99.90
5842;DHT22;2947;52.276;9.946;2022-10-31T09:20:38;14.50;99.90
5842;DHT22;2947;52.276;9.946;2022-10-31T09:23:10;14.50;99.90
5842;DHT22;2947;52.276;9.946;2022-10-31T09:25:40;14.60;99.90
5842;DHT22;2947;52.276;9.946;2022-10-31T09:28:09;14.80;99.90
5842;DHT22;2947;52.276;9.946;2022-10-31T09:30:36;15.70;99.90
5842;DHT22;2947;52.276;9.946;2022-10-31T09:33:05;14.70;99.90
5842;DHT22;2947;52.276;9.946;2022-10-31T09:35:32;15.20;99.90
5842;DHT22;2947;52.276;9.946;2022-10-31T09:38:00;14.80;99.90
5842;DHT22;2947;52.276;9.946;2022-10-31T09:40:38;15.00;99.90
5842;DHT22;2947;52.276;9.946;2022-10-31T09:46:14;15.20;99.90
5842;DHT22;2947;52.276;9.946;2022-10-31T09:51:29;15.30;99.90
5842;DHT22;2947;52.276;9.946;2022-10-31T09:54:14;15.50;99.90
5842;DHT22;2947;52.276;9.946;2022-10-31T09:56:43;15.50;99.90
5842;DHT22;2947;52.276;9.946;2022-10-31T09:59:18;15.60;99.90
5842;DHT22;2947;52.276;9.946;2022-10-31T10:01:57;15.70;99.90
5842;DHT22;2947;52.276;9.946;2022-10-31T10:04:34;15.80;96.10
5842;DHT22;2947;52.276;9.946;2022-10-31T10:07:11;15.90;78.20
5842;DHT22;2947;52.276;9.946;2022-10-31T10:09:41;16.00;54.50
5842;DHT22;2947;52.276;9.946;2022-10-31T10:12:36;17.10;59.50
5842;DHT22;2947;52.276;9.946;2022-10-31T10:20:31;16.60;15.00
5842;DHT22;2947;52.276;9.946;2022-10-31T10:26:19;17.20;11.40
5842;DHT22;2947;52.276;9.946;2022-10-31T10:28:57;16.10;1.00
5842;DHT22;2947;52.276;9.946;2022-10-31T10:31:27;16.80;1.00
5842;DHT22;2947;52.276;9.946;2022-10-31T10:34:20;16.90;1.00
5842;DHT22;2947;52.276;9.946;2022-10-31T10:37:20;17.50;1.00
5842;DHT22;2947;52.276;9.946;2022-10-31T10:39:52;17.10;1.00
5842;DHT22;2947;52.276;9.946;2022-10-31T10:42:23;17.80;1.00
5842;DHT22;2947;52.276;9.946;2022-10-31T10:45:18;17.30;1.00
5842;DHT22;2947;52.276;9.946;2022-10-31T10:48:14;17.40;1.00
5842;DHT22;2947;52.276;9.946;2022-10-31T10:50:46;17.50;1.00
5842;DHT22;2947;52.276;9.946;2022-10-31T10:53:30;17.70;1.00
5842;DHT22;2947;52.276;9.946;2022-10-31T10:56:51;17.70;1.00
5842;DHT22;2947;52.276;9.946;2022-10-31T10:59:23;17.80;1.00
5842;DHT22;2947;52.276;9.946;2022-10-31T11:01:50;17.90;1.00
5842;DHT22;2947;52.276;9.946;2022-10-31T11:04:29;17.90;1.00
5842;DHT22;2947;52.276;9.946;2022-10-31T11:07:05;17.90;1.00
5842;DHT22;2947;52.276;9.946;2022-10-31T11:09:34;18.00;1.00
5842;DHT22;2947;52.276;9.946;2022-10-31T11:12:08;19.00;99.90
5842;DHT22;2947;52.276;9.946;2022-10-31T11:14:54;18.10;99.90
5842;DHT22;2947;52.276;9.946;2022-10-31T11:17:39;18.20;99.90
5842;DHT22;2947;52.276;9.946;2022-10-31T11:22:37;18.30;99.90
5842;DHT22;2947;52.276;9.946;2022-10-31T11:25:23;18.30;99.90
5842;DHT22;2947;52.276;9.946;2022-10-31T11:28:09;18.30;99.90
5842;DHT22;2947;52.276;9.946;2022-10-31T11:31:28;19.20;99.90
5842;DHT22;2947;52.276;9.946;2022-10-31T11:33:49;18.40;1.00
5842;DHT22;2947;52.276;9.946;2022-10-31T11:36:25;18.50;1.00
5842;DHT22;2947;52.276;9.946;2022-10-31T11:38:53;18.60;83.00
5842;DHT22;2947;52.276;9.946;2022-10-31T11:41:32;18.80;99.90
5842;DHT22;2947;52.276;9.946;2022-10-31T11:44:20;19.60;99.90
5842;DHT22;2947;52.276;9.946;2022-10-31T11:46:51;18.90;1.00
5842;DHT22;2947;52.276;9.946;2022-10-31T11:49:30;18.90;99.90
5842;DHT22;2947;52.276;9.946;2022-10-31T11:52:04;18.90;1.00
5842;DHT22;2947;52.276;9.946;2022-10-31T11:54:36;19.10;1.00
5842;DHT22;2947;52.276;9.946;2022-10-31T11:57:47;19.80;99.90
5842;DHT22;2947;52.276;9.946;2022-10-31T12:00:26;19.10;1.00
5842;DHT22;2947;52.276;9.946;2022-10-31T12:05:51;19.00;99.90
5842;DHT22;2947;52.276;9.946;2022-10-31T12:08:21;19.20;1.00
5842;DHT22;2947;52.276;9.946;2022-10-31T12:22:04;19.40;99.90
5842;DHT22;2947;52.276;9.946;2022-10-31T12:27:49;19.20;99.90
5842;DHT22;2947;52.276;9.946;2022-10-31T12:30:40;19.10;1.00
5842;DHT22;2947;52.276;9.946;2022-10-31T12:33:29;19.20;99.90
5842;DHT22;2947;52.276;9.946;2022-10-31T12:36:08;19.10;99.90
5842;DHT22;2947;52.276;9.946;2022-10-31T12:41:51;19.10;99.90
5842;DHT22;2947;52.276;9.946;2022-10-31T12:44:42;19.10;99.90
5842;DHT22;2947;52.276;9.946;2022-10-31T12:50:50;19.00;1.00
5842;DHT22;2947;52.276;9.946;2022-10-31T12:53:31;19.10;99.90
5842;DHT22;2947;52.276;9.946;2022-10-31T12:56:26;19.20;99.90
5842;DHT22;2947;52.276;9.946;2022-10-31T12:59:35;19.20;99.90
5842;DHT22;2947;52.276;9.946;2022-10-31T13:02:29;19.20;99.90
5842;DHT22;2947;52.276;9.946;2022-10-31T13:05:19;19.10;1.00
5842;DHT22;2947;52.276;9.946;2022-10-31T13:08:19;19.10;99.90
5842;DHT22;2947;52.276;9.946;2022-10-31T13:14:09;19.10;1.00
5842;DHT22;2947;52.276;9.946;2022-10-31T13:16:48;19.00;1.00
5842;DHT22;2947;52.276;9.946;2022-10-31T13:19:31;19.00;99.90
5842;DHT22;2947;52.276;9.946;2022-10-31T13:22:06;18.90;1.00
5842;DHT22;2947;52.276;9.946;2022-10-31T13:28:05;18.80;1.00
5842;DHT22;2947;52.276;9.946;2022-10-31T13:30:40;18.80;99.90
5842;DHT22;2947;52.276;9.946;2022-10-31T13:33:15;18.70;1.00
5842;DHT22;2947;52.276;9.946;2022-10-31T13:41:52;18.70;97.40
5842;DHT22;2947;52.276;9.946;2022-10-31T13:44:26;18.50;1.00
5842;DHT22;2947;52.276;9.946;2022-10-31T13:46:55;18.50;1.00
5842;DHT22;2947;52.276;9.946;2022-10-31T13:49:37;18.40;99.90
5842;DHT22;2947;52.276;9.946;2022-10-31T13:59:52;19.00;99.90
5842;DHT22;2947;52.276;9.946;2022-10-31T14:02:34;18.20;1.00
5842;DHT22;2947;52.276;9.946;2022-10-31T14:05:06;18.20;99.90
5842;DHT22;2947;52.276;9.946;2022-10-31T14:07:47;18.20;1.00
5842;DHT22;2947;52.276;9.946;2022-10-31T14:10:34;18.30;99.90
5842;DHT22;2947;52.276;9.946;2022-10-31T14:13:22;18.10;1.00
5842;DHT22;2947;52.276;9.946;2022-10-31T14:19:04;18.00;99.90
5842;DHT22;2947;52.276;9.946;2022-10-31T14:21:44;18.00;99.90
5842;DHT22;2947;52.276;9.946;2022-10-31T14:24:36;18.00;99.90
5842;DHT22;2947;52.276;9.946;2022-10-31T14:29:53;17.80;1.00
5842;DHT22;2947;52.276;9.946;2022-10-31T14:32:23;18.30;1.00
5842;DHT22;2947;52.276;9.946;2022-10-31T14:37:40;18.30;1.00
5842;DHT22;2947;52.276;9.946;2022-10-31T14:49:37;17.40;1.00
5842;DHT22;2947;52.276;9.946;2022-10-31T14:52:14;17.30;1.00
5842;DHT22;2947;52.276;9.946;2022-10-31T14:54:50;17.40;1.00
5842;DHT22;2947;52.276;9.946;2022-10-31T14:57:30;17.30;1.00
5842;DHT22;2947;52.276;9.946;2022-10-31T15:00:04;17.30;1.00
5842;DHT22;2947;52.276;9.946;2022-10-31T15:02:37;17.40;1.00
5842;DHT22;2947;52.276;9.946;2022-10-31T15:05:11;17.80;1.00
5842;DHT22;2947;52.276;9.946;2022-10-31T15:07:55;17.10;1.00
5842;DHT22;2947;52.276;9.946;2022-10-31T15:10:30;17.10;1.30
5842;DHT22;2947;52.276;9.946;2022-10-31T15:13:17;17.10;2.50
5842;DHT22;2947;52.276;9.946;2022-10-31T15:15:45;16.90;5.10
5842;DHT22;2947;52.276;9.946;2022-10-31T15:18:17;17.00;5.00
5842;DHT22;2947;52.276;9.946;2022-10-31T15:20:46;16.80;9.00
5842;DHT22;2947;52.276;9.946;2022-10-31T15:23:28;17.40;23.50
5842;DHT22;2947;52.276;9.946;2022-10-31T15:26:03;17.40;23.50
5842;DHT22;2947;52.276;9.946;2022-10-31T15:28:30;16.70;37.70
5842;DHT22;2947;52.276;9.946;2022-10-31T15:30:59;16.70;33.30
5842;DHT22;2947;52.276;9.946;2022-10-31T15:33:39;17.10;45.50
5842;DHT22;2947;52.276;9.946;2022-10-31T15:36:21;16.60;46.10
5842;DHT22;2947;52.276;9.946;2022-10-31T15:38:50;16.50;60.20
5842;DHT22;2947;52.276;9.946;2022-10-31T15:41:30;16.50;75.20
5842;DHT22;2947;52.276;9.946;2022-10-31T15:44:07;16.80;89.50
5842;DHT22;2947;52.276;9.946;2022-10-31T15:46:38;16.30;91.70
5842;DHT22;2947;52.276;9.946;2022-10-31T15:49:04;16.30;92.80
5842;DHT22;2947;52.276;9.946;2022-10-31T15:51:38;17.00;97.50
5842;DHT22;2947;52.276;9.946;2022-10-31T15:54:04;16.30;98.30
5842;DHT22;2947;52.276;9.946;2022-10-31T15:56:31;16.30;98.90
5842;DHT22;2947;52.276;9.946;2022-10-31T15:58:58;15.10;94.00
5842;DHT22;2947;52.276;9.946;2022-10-31T16:01:28;16.30;99.90
5842;DHT22;2947;52.276;9.946;2022-10-31T16:04:02;16.30;95.90
5842;DHT22;2947;52.276;9.946;2022-10-31T16:06:33;16.20;93.50
5842;DHT22;2947;52.276;9.946;2022-10-31T16:09:00;16.20;86.60
5842;DHT22;2947;52.276;9.946;2022-10-31T16:11:35;16.20;97.10
5842;DHT22;2947;52.276;9.946;2022-10-31T16:14:17;16.40;92.70
5842;DHT22;2947;52.276;9.946;2022-10-31T16:16:46;16.20;99.90
5842;DHT22;2947;52.276;9.946;2022-10-31T16:19:18;16.10;99.90
5842;DHT22;2947;52.276;9.946;2022-10-31T16:21:48;16.10;99.90
5842;DHT22;2947;52.276;9.946;2022-10-31T16:24:26;16.30;99.90
5842;DHT22;2947;52.276;9.946;2022-10-31T16:26:58;16.20;99.90
5842;DHT22;2947;52.276;9.946;2022-10-31T16:29:41;16.10;99.90
5842;DHT22;2947;52.276;9.946;2022-10-31T16:32:35;16.10;99.90
5842;DHT22;2947;52.276;9.946;2022-10-31T16:37:40;16.10;99.70
5842;DHT22;2947;52.276;9.946;2022-10-31T16:40:07;16.10;99.90
5842;DHT22;2947;52.276;9.946;2022-10-31T16:42:35;16.10;99.90
5842;DHT22;2947;52.276;9.946;2022-10-31T16:45:01;16.10;99.90
5842;DHT22;2947;52.276;9.946;2022-10-31T16:47:26;16.10;99.90
5842;DHT22;2947;52.276;9.946;2022-10-31T16:49:52;16.10;99.90
5842;DHT22;2947;52.276;9.946;2022-10-31T16:52:18;16.00;99.90
5842;DHT22;2947;52.276;9.946;2022-10-31T16:54:43;16.00;99.90
5842;DHT22;2947;52.276;9.946;2022-10-31T16:57:15;17.00;99.90
5842;DHT22;2947;52.276;9.946;2022-10-31T16:59:45;16.10;99.90
5842;DHT22;2947;52.276;9.946;2022-10-31T17:02:14;16.60;99.90
5842;DHT22;2947;52.276;9.946;2022-10-31T17:04:41;14.90;99.90
5842;DHT22;2947;52.276;9.946;2022-10-31T17:07:07;15.50;99.90
5842;DHT22;2947;52.276;9.946;2022-10-31T17:09:32;16.00;99.90
5842;DHT22;2947;52.276;9.946;2022-10-31T17:11:58;16.00;99.90
5842;DHT22;2947;52.276;9.946;2022-10-31T17:14:24;17.40;99.90
5842;DHT22;2947;52.276;9.946;2022-10-31T17:16:50;16.00;99.90
5842;DHT22;2947;52.276;9.946;2022-10-31T17:19:16;16.00;99.90
5842;DHT22;2947;52.276;9.946;2022-10-31T17:21:42;16.00;99.90
5842;DHT22;2947;52.276;9.946;2022-10-31T17:24:11;15.90;99.90
5842;DHT22;2947;52.276;9.946;2022-10-31T17:26:38;15.90;99.90
5842;DHT22;2947;52.276;9.946;2022-10-31T17:29:04;15.90;99.90
5842;DHT22;2947;52.276;9.946;2022-10-31T17:31:33;16.40;99.90
5842;DHT22;2947;52.276;9.946;2022-10-31T17:34:01;15.80;99.90
5842;DHT22;2947;52.276;9.946;2022-10-31T17:36:30;15.90;99.90
5842;DHT22;2947;52.276;9.946;2022-10-31T17:38:56;15.90;99.90
5842;DHT22;2947;52.276;9.946;2022-10-31T17:41:21;15.90;99.90
5842;DHT22;2947;52.276;9.946;2022-10-31T17:43:47;15.90;99.90
5842;DHT22;2947;52.276;9.946;2022-10-31T17:46:13;15.80;99.90
5842;DHT22;2947;52.276;9.946;2022-10-31T17:48:39;15.80;99.90
5842;DHT22;2947;52.276;9.946;2022-10-31T17:51:05;15.80;99.90
5842;DHT22;2947;52.276;9.946;2022-10-31T17:53:33;15.80;99.90
5842;DHT22;2947;52.276;9.946;2022-10-31T17:56:04;15.80;99.90
5842;DHT22;2947;52.276;9.946;2022-10-31T17:58:34;15.70;99.90
5842;DHT22;2947;52.276;9.946;2022-10-31T18:01:09;15.70;99.90
5842;DHT22;2947;52.276;9.946;2022-10-31T18:03:39;15.70;99.90
5842;DHT22;2947;52.276;9.946;2022-10-31T18:06:05;15.80;99.90
5842;DHT22;2947;52.276;9.946;2022-10-31T18:08:33;16.20;99.90
5842;DHT22;2947;52.276;9.946;2022-10-31T18:11:23;15.70;99.90
5842;DHT22;2947;52.276;9.946;2022-10-31T18:13:56;15.70;99.90
5842;DHT22;2947;52.276;9.946;2022-10-31T18:16:24;15.70;99.90
5842;DHT22;2947;52.276;9.946;2022-10-31T18:18:51;16.20;99.90
5842;DHT22;2947;52.276;9.946;2022-10-31T18:21:19;16.50;99.90
5842;DHT22;2947;52.276;9.946;2022-10-31T18:23:44;15.60;99.90
5842;DHT22;2947;52.276;9.946;2022-10-31T18:26:10;16.00;99.90